< < Back
Terminal Aerodrome Forecast


Current Version              Previous Versions:   1  2  3  4  5  6  7  8  9  

Terminal Aerodrome Forecast

210
FTUS44 KHUN 261120
TAFHSV
TAF
KHSV 261120Z 2612/2712 33005KT 5SM BR SCT010 BKN015
     FM261500 33008KT P6SM BKN020
     FM261900 34010KT P6SM SCT040
     FM270400 03006KT P6SM SCT250=

Latest METAR

390
SAUS80 KWBC 261700
MTRHSV
METAR KHSV 261653Z 33007KT 10SM BKN039 23/16 A2975 RMK AO2 SLP067
T02280156


USA.gov is the U.S. government's official web portal to all federal, state and local government web resources and services.